createdAt,value
2023-04-14T00:00:02.927Z,9.77
2023-04-14T00:02:42.045Z,9.75
2023-04-14T00:05:10.489Z,9.71
2023-04-14T00:07:38.756Z,9.66
2023-04-14T00:10:07.380Z,9.57
2023-04-14T00:12:35.759Z,9.51
2023-04-14T00:15:03.917Z,9.48
2023-04-14T00:17:32.411Z,9.45
2023-04-14T00:20:02.025Z,9.42
2023-04-14T00:22:31.482Z,9.41
2023-04-14T00:24:59.531Z,9.32
2023-04-14T00:27:27.620Z,9.24
2023-04-14T00:29:55.773Z,9.16
2023-04-14T00:32:23.888Z,9.09
2023-04-14T00:34:51.974Z,9.03
2023-04-14T00:37:21.414Z,8.96
2023-04-14T00:39:49.433Z,8.90
2023-04-14T00:42:17.454Z,8.88
2023-04-14T00:44:47.461Z,8.75
2023-04-14T00:47:16.460Z,8.69
2023-04-14T00:49:45.018Z,8.64
2023-04-14T00:52:13.435Z,8.65
2023-04-14T00:54:43.547Z,8.61
2023-04-14T00:57:12.008Z,8.52
2023-04-14T00:59:40.557Z,8.47
2023-04-14T01:02:08.751Z,8.38
2023-04-14T01:04:52.060Z,8.33
2023-04-14T01:07:21.870Z,8.27
2023-04-14T01:09:51.555Z,8.18
2023-04-14T01:12:26.906Z,8.09
2023-04-14T01:14:58.663Z,8.09
2023-04-14T01:17:29.495Z,7.92
2023-04-14T01:20:08.298Z,7.87
2023-04-14T01:22:37.995Z,7.89
2023-04-14T01:25:13.901Z,7.85
2023-04-14T01:27:45.294Z,7.81
2023-04-14T01:30:34.163Z,7.77
2023-04-14T01:33:05.703Z,7.74
2023-04-14T01:35:36.036Z,7.72
2023-04-14T01:38:06.046Z,7.66
2023-04-14T01:40:35.278Z,7.60
2023-04-14T01:43:05.822Z,7.57
2023-04-14T01:45:38.036Z,7.54
2023-04-14T01:48:08.392Z,7.53
2023-04-14T01:50:38.576Z,7.52
2023-04-14T01:53:08.344Z,7.53
2023-04-14T01:55:38.431Z,7.53
2023-04-14T01:58:08.093Z,7.54
2023-04-14T02:00:37.192Z,7.52
2023-04-14T02:03:06.382Z,7.52
2023-04-14T02:05:36.982Z,7.46
2023-04-14T02:08:07.739Z,7.42
2023-04-14T02:10:38.107Z,7.35
2023-04-14T02:13:07.453Z,7.30
2023-04-14T02:15:36.290Z,7.24
2023-04-14T02:18:06.152Z,7.20
2023-04-14T02:20:38.242Z,7.14
2023-04-14T02:23:06.323Z,7.15
2023-04-14T02:25:36.356Z,7.08
2023-04-14T02:28:06.684Z,7.03
2023-04-14T02:30:36.810Z,6.98
2023-04-14T02:33:06.824Z,6.94
2023-04-14T02:35:40.111Z,6.96
2023-04-14T02:38:11.753Z,6.95
2023-04-14T02:40:42.420Z,6.83
2023-04-14T02:43:13.863Z,6.81
2023-04-14T02:45:47.095Z,6.83
2023-04-14T02:48:16.012Z,6.75
2023-04-14T02:50:46.942Z,6.77
2023-04-14T02:53:19.878Z,6.79
2023-04-14T02:55:49.260Z,6.76
2023-04-14T02:58:19.476Z,6.68
2023-04-14T03:00:47.888Z,6.65
2023-04-14T03:03:17.483Z,6.65
2023-04-14T03:05:49.051Z,6.64
2023-04-14T03:08:18.099Z,6.61
2023-04-14T03:10:50.245Z,6.61
2023-04-14T03:13:24.449Z,6.58
2023-04-14T03:15:53.230Z,6.55
2023-04-14T03:18:22.482Z,6.55
2023-04-14T03:20:55.994Z,6.56
2023-04-14T03:23:26.658Z,6.47
2023-04-14T03:26:00.714Z,6.49
2023-04-14T03:28:32.682Z,6.50
2023-04-14T03:31:05.404Z,6.50
2023-04-14T03:33:43.637Z,6.46
2023-04-14T03:36:17.311Z,6.45
2023-04-14T03:38:47.015Z,6.45
2023-04-14T03:41:16.028Z,6.37
2023-04-14T03:43:46.894Z,6.36
2023-04-14T03:46:16.840Z,6.31
2023-04-14T03:48:47.624Z,6.23
2023-04-14T03:51:20.085Z,6.24
2023-04-14T03:53:49.278Z,6.26
2023-04-14T03:56:18.955Z,6.23
2023-04-14T03:58:49.481Z,6.26
2023-04-14T04:01:19.794Z,6.22
2023-04-14T04:03:49.903Z,6.17
2023-04-14T04:06:19.779Z,6.20
2023-04-14T04:08:49.146Z,6.22
2023-04-14T04:11:19.061Z,6.21
2023-04-14T04:13:49.830Z,6.18
2023-04-14T04:16:19.477Z,6.13
2023-04-14T04:18:49.518Z,6.13
2023-04-14T04:21:28.229Z,6.13
2023-04-14T04:23:58.433Z,6.09
2023-04-14T04:26:26.921Z,6.06
2023-04-14T04:28:57.212Z,6.02
2023-04-14T04:31:28.734Z,5.99
2023-04-14T04:33:58.343Z,5.99
2023-04-14T04:36:29.788Z,5.97
2023-04-14T04:38:58.812Z,5.94
2023-04-14T04:41:29.095Z,5.87
2023-04-14T04:44:00.441Z,5.88
2023-04-14T04:46:46.693Z,5.90
2023-04-14T04:49:16.765Z,5.92
2023-04-14T04:51:47.340Z,5.92
2023-04-14T04:54:17.421Z,5.95
2023-04-14T04:56:45.518Z,5.96
2023-04-14T04:59:13.612Z,5.97
2023-04-14T05:01:41.698Z,5.92
2023-04-14T05:04:09.902Z,5.91
2023-04-14T05:06:38.432Z,5.99
2023-04-14T05:09:08.046Z,6.00
2023-04-14T05:11:36.831Z,6.02
2023-04-14T05:14:05.330Z,6.09
2023-04-14T05:16:34.057Z,6.13
2023-04-14T05:19:03.006Z,6.20
2023-04-14T05:21:31.287Z,6.21
2023-04-14T05:24:00.651Z,6.23
2023-04-14T05:26:51.994Z,6.21
2023-04-14T05:29:18.514Z,6.25
2023-04-14T05:31:46.627Z,6.30
2023-04-14T05:34:15.244Z,6.34
2023-04-14T05:36:43.446Z,6.37
2023-04-14T05:39:11.840Z,6.45
2023-04-14T05:41:41.418Z,6.54
2023-04-14T05:44:09.436Z,6.55
2023-04-14T05:46:37.876Z,6.58
2023-04-14T05:49:06.084Z,6.64
2023-04-14T05:51:34.479Z,6.73
2023-04-14T05:54:02.759Z,6.79
2023-04-14T05:56:31.233Z,6.85
2023-04-14T05:59:00.971Z,6.90
2023-04-14T06:01:29.812Z,7.00
2023-04-14T06:03:58.199Z,7.07
2023-04-14T06:06:26.696Z,7.16
2023-04-14T06:08:54.866Z,7.23
2023-04-14T06:11:23.382Z,7.27
2023-04-14T06:13:51.787Z,7.33
2023-04-14T06:16:21.324Z,7.38
2023-04-14T06:18:49.520Z,7.47
2023-04-14T06:21:17.629Z,7.51
2023-04-14T06:23:45.889Z,7.60
2023-04-14T06:26:13.969Z,7.70
2023-04-14T06:28:43.807Z,7.78
2023-04-14T06:31:12.345Z,7.86
2023-04-14T06:33:41.920Z,7.89
2023-04-14T06:36:10.114Z,7.98
2023-04-14T06:38:38.248Z,8.06
2023-04-14T06:41:07.195Z,8.19
2023-04-14T06:43:35.320Z,8.26
2023-04-14T06:46:03.754Z,8.32
2023-04-14T06:48:31.870Z,8.39
2023-04-14T06:51:01.329Z,8.50
2023-04-14T06:53:29.457Z,8.60
2023-04-14T06:56:00.685Z,8.72
2023-04-14T06:58:29.606Z,8.82
2023-04-14T07:00:58.375Z,8.87
2023-04-14T07:03:27.022Z,9.00
2023-04-14T07:05:55.156Z,9.16
2023-04-14T07:08:24.634Z,9.28
2023-04-14T07:11:00.505Z,9.43
2023-04-14T07:13:28.727Z,9.54
2023-04-14T07:15:56.935Z,9.63
2023-04-14T07:18:25.103Z,9.76
2023-04-14T07:20:54.301Z,9.86
2023-04-14T07:23:22.807Z,9.97
2023-04-14T07:25:52.935Z,9.98
2023-04-14T07:28:21.513Z,10.07
2023-04-14T07:30:49.773Z,10.13
2023-04-14T07:33:19.320Z,10.19
2023-04-14T07:35:58.686Z,10.26
2023-04-14T07:38:30.583Z,10.34
2023-04-14T07:40:59.987Z,10.43
2023-04-14T07:43:28.136Z,10.49
2023-04-14T07:45:56.424Z,10.57
2023-04-14T07:48:24.564Z,10.61
2023-04-14T07:50:52.563Z,10.68
2023-04-14T07:53:20.574Z,10.76
2023-04-14T07:55:48.687Z,10.81
2023-04-14T07:58:18.070Z,10.88
2023-04-14T08:00:46.292Z,10.93
2023-04-14T08:03:14.922Z,11.05
2023-04-14T08:05:43.940Z,11.14
2023-04-14T08:08:12.445Z,11.21
2023-04-14T08:10:40.758Z,11.26
2023-04-14T08:13:08.920Z,11.36
2023-04-14T08:15:38.427Z,11.44
2023-04-14T08:18:06.842Z,11.50
2023-04-14T08:20:34.912Z,11.61
2023-04-14T08:23:03.210Z,11.68
2023-04-14T08:25:31.444Z,11.77
2023-04-14T08:27:59.487Z,11.90
2023-04-14T08:30:27.709Z,12.05
2023-04-14T08:32:59.107Z,12.26
2023-04-14T08:35:37.966Z,12.54
2023-04-14T08:38:09.608Z,12.90
2023-04-14T08:40:38.717Z,13.35
2023-04-14T08:43:06.798Z,13.84
2023-04-14T08:45:35.183Z,14.44
2023-04-14T08:48:05.775Z,15.02
2023-04-14T08:50:36.732Z,15.73
2023-04-14T08:53:07.559Z,16.42
2023-04-14T08:55:37.760Z,17.09
2023-04-14T08:58:07.804Z,17.91
2023-04-14T09:00:36.076Z,18.54
2023-04-14T09:03:05.983Z,19.26
2023-04-14T09:05:34.580Z,19.73
2023-04-14T09:08:03.867Z,20.33
2023-04-14T09:10:32.680Z,21.04
2023-04-14T09:13:01.535Z,21.70
2023-04-14T09:15:30.123Z,22.05
2023-04-14T09:17:58.706Z,22.28
2023-04-14T09:20:37.960Z,22.49
2023-04-14T09:23:09.013Z,22.80
2023-04-14T09:25:37.982Z,22.99
2023-04-14T09:28:06.158Z,23.40
2023-04-14T09:30:34.517Z,23.84
2023-04-14T09:33:05.612Z,24.26
2023-04-14T09:35:44.991Z,24.51
2023-04-14T09:38:13.160Z,24.89
2023-04-14T09:40:43.523Z,24.99
2023-04-14T09:43:23.949Z,25.38
2023-04-14T09:45:52.137Z,25.73
2023-04-14T09:48:20.891Z,25.99
2023-04-14T09:51:00.511Z,26.02
2023-04-14T09:53:29.837Z,26.08
2023-04-14T09:55:58.202Z,26.13
2023-04-14T09:58:29.970Z,25.94
2023-04-14T10:00:59.544Z,26.04
2023-04-14T10:03:34.741Z,26.03
2023-04-14T10:06:05.710Z,26.41
2023-04-14T10:08:38.124Z,26.59
2023-04-14T10:11:16.569Z,27.04
2023-04-14T10:13:44.839Z,27.17
2023-04-14T10:16:13.062Z,27.03
2023-04-14T10:18:41.331Z,27.05
2023-04-14T10:21:11.497Z,27.40
2023-04-14T10:23:41.334Z,27.62
2023-04-14T10:26:10.063Z,28.12
2023-04-14T10:28:39.368Z,28.66
2023-04-14T10:31:09.558Z,29.07
2023-04-14T10:33:38.078Z,29.32
2023-04-14T10:36:06.867Z,29.90
2023-04-14T10:38:40.956Z,30.43
2023-04-14T10:41:09.179Z,30.68
2023-04-14T10:43:38.183Z,31.04
2023-04-14T10:46:07.667Z,31.39
2023-04-14T10:48:36.495Z,31.36
2023-04-14T10:51:05.920Z,31.56
2023-04-14T10:53:45.987Z,31.62
2023-04-14T10:56:14.154Z,31.48
2023-04-14T10:58:42.357Z,31.54
2023-04-14T11:01:24.293Z,31.53
2023-04-14T11:03:53.144Z,31.39
2023-04-14T11:06:40.978Z,31.26
2023-04-14T11:09:24.097Z,31.17
2023-04-14T11:11:54.438Z,31.17
2023-04-14T11:14:27.163Z,31.28
2023-04-14T11:17:03.993Z,31.40
2023-04-14T11:19:33.374Z,31.19
2023-04-14T11:22:01.473Z,30.71
2023-04-14T11:24:29.692Z,30.78
2023-04-14T11:27:00.215Z,30.52
2023-04-14T11:29:28.258Z,30.40
2023-04-14T11:32:03.294Z,30.12
2023-04-14T11:34:31.535Z,29.73
2023-04-14T11:36:59.717Z,29.26
2023-04-14T11:39:28.979Z,28.44
2023-04-14T11:42:00.299Z,27.89
2023-04-14T11:44:30.500Z,27.16
2023-04-14T11:46:58.651Z,26.63
2023-04-14T11:49:36.240Z,25.89
2023-04-14T11:52:08.311Z,25.03
2023-04-14T11:54:37.534Z,24.44
2023-04-14T11:57:10.094Z,23.93
2023-04-14T11:59:43.956Z,23.47
2023-04-14T12:02:18.904Z,22.98
2023-04-14T12:04:49.371Z,22.59
2023-04-14T12:07:19.278Z,22.09
2023-04-14T12:09:49.076Z,21.73
2023-04-14T12:12:18.096Z,21.13
2023-04-14T12:14:49.377Z,20.79
2023-04-14T12:17:18.892Z,20.38
2023-04-14T12:19:47.148Z,20.04
2023-04-14T12:22:16.303Z,19.81
2023-04-14T12:24:45.184Z,19.66
2023-04-14T12:27:14.965Z,19.28
2023-04-14T12:29:45.267Z,19.23
2023-04-14T12:32:15.564Z,19.18
2023-04-14T12:34:54.084Z,19.14
2023-04-14T12:37:25.753Z,18.97
2023-04-14T12:39:57.793Z,18.87
2023-04-14T12:42:26.072Z,18.81
2023-04-14T12:44:58.296Z,18.55
2023-04-14T12:47:32.000Z,18.52
2023-04-14T12:50:00.574Z,18.49
2023-04-14T12:52:35.754Z,18.37
2023-04-14T12:55:05.071Z,18.17
2023-04-14T12:57:33.812Z,18.02
2023-04-14T13:00:02.300Z,17.93
2023-04-14T13:02:32.313Z,17.93
2023-04-14T13:05:00.592Z,17.84
2023-04-14T13:07:28.689Z,17.62
2023-04-14T13:09:56.886Z,17.47
2023-04-14T13:12:25.034Z,17.37
2023-04-14T13:14:54.132Z,17.32
2023-04-14T13:17:22.372Z,17.22
2023-04-14T13:19:52.042Z,17.29
2023-04-14T13:22:20.078Z,17.23
2023-04-14T13:24:48.225Z,17.14
2023-04-14T13:27:16.228Z,17.07
2023-04-14T13:29:44.376Z,16.99
2023-04-14T13:32:13.184Z,16.87
2023-04-14T13:34:41.455Z,16.73
2023-04-14T13:37:10.931Z,16.68
2023-04-14T13:39:39.050Z,16.62
2023-04-14T13:42:07.172Z,16.49
2023-04-14T13:44:35.782Z,16.34
2023-04-14T13:47:03.853Z,16.24
2023-04-14T13:49:31.974Z,16.16
2023-04-14T13:52:00.036Z,16.04
2023-04-14T13:54:29.544Z,16.04
2023-04-14T13:56:57.895Z,15.98
2023-04-14T13:59:25.965Z,15.90
2023-04-14T14:01:54.228Z,15.87
2023-04-14T14:04:22.643Z,15.87
2023-04-14T14:06:50.877Z,15.78
2023-04-14T14:09:18.953Z,15.68
2023-04-14T14:11:48.364Z,15.55
2023-04-14T14:14:16.464Z,15.41
2023-04-14T14:16:44.787Z,15.26
2023-04-14T14:19:16.963Z,15.22
2023-04-14T14:21:45.417Z,15.11
2023-04-14T14:24:14.240Z,15.06
2023-04-14T14:26:42.397Z,15.01
2023-04-14T14:29:11.998Z,14.96
2023-04-14T14:31:40.575Z,14.88
2023-04-14T14:34:10.276Z,14.82
2023-04-14T14:36:38.445Z,14.78
2023-04-14T14:39:06.515Z,14.77
2023-04-14T14:41:34.668Z,14.71
2023-04-14T14:44:03.137Z,14.67
2023-04-14T14:46:32.971Z,14.53
2023-04-14T14:49:01.397Z,14.42
2023-04-14T14:51:29.491Z,14.40
2023-04-14T14:54:08.829Z,14.37
2023-04-14T14:56:37.758Z,14.34
2023-04-14T14:59:05.926Z,14.22
2023-04-14T15:01:35.661Z,14.22
2023-04-14T15:04:05.295Z,14.18
2023-04-14T15:06:34.569Z,14.15
2023-04-14T15:09:03.526Z,14.06
2023-04-14T15:11:31.922Z,13.95
2023-04-14T15:14:00.287Z,13.91
2023-04-14T15:16:29.054Z,13.84
2023-04-14T15:18:58.915Z,13.72
2023-04-14T15:21:27.117Z,13.68
2023-04-14T15:23:55.196Z,13.57
2023-04-14T15:26:23.429Z,13.53
2023-04-14T15:28:51.578Z,13.50
2023-04-14T15:31:19.752Z,13.47
2023-04-14T15:33:47.826Z,13.46
2023-04-14T15:36:17.363Z,13.41
2023-04-14T15:38:47.133Z,13.34
2023-04-14T15:41:15.300Z,13.32
2023-04-14T15:43:43.648Z,13.22
2023-04-14T15:46:13.123Z,13.17
2023-04-14T15:48:41.472Z,13.12
2023-04-14T15:51:09.957Z,13.02
2023-04-14T15:53:39.422Z,13.00
2023-04-14T15:56:07.758Z,12.85
2023-04-14T15:58:35.922Z,12.84
2023-04-14T16:01:07.759Z,12.75
2023-04-14T16:03:36.981Z,12.80
2023-04-14T16:06:07.013Z,12.80
2023-04-14T16:08:35.211Z,12.78
2023-04-14T16:11:05.104Z,12.74
2023-04-14T16:13:33.274Z,12.73
2023-04-14T16:16:01.494Z,12.68
2023-04-14T16:18:29.665Z,12.65
2023-04-14T16:20:57.973Z,12.51
2023-04-14T16:23:26.082Z,12.48
2023-04-14T16:25:54.844Z,12.43
2023-04-14T16:28:25.013Z,12.38
2023-04-14T16:30:53.702Z,12.27
2023-04-14T16:33:21.892Z,12.30
2023-04-14T16:35:50.228Z,12.27
2023-04-14T16:38:18.556Z,12.20
2023-04-14T16:40:54.671Z,12.13
2023-04-14T16:43:24.777Z,12.08
2023-04-14T16:45:53.007Z,12.02
2023-04-14T16:48:21.145Z,11.89
2023-04-14T16:50:49.284Z,11.89
2023-04-14T16:53:17.324Z,11.91
2023-04-14T16:55:45.408Z,11.89
2023-04-14T16:58:13.613Z,11.88
2023-04-14T17:00:43.071Z,11.85
2023-04-14T17:03:11.280Z,11.80
2023-04-14T17:05:39.446Z,11.71
2023-04-14T17:08:07.589Z,11.67
2023-04-14T17:10:35.733Z,11.69
2023-04-14T17:13:04.102Z,11.67
2023-04-14T17:15:32.531Z,11.63
2023-04-14T17:18:02.169Z,11.58
2023-04-14T17:20:30.699Z,11.54
2023-04-14T17:22:59.281Z,11.57
2023-04-14T17:25:27.574Z,11.49
2023-04-14T17:27:55.726Z,11.46
2023-04-14T17:30:24.745Z,11.39
2023-04-14T17:32:52.885Z,11.35
2023-04-14T17:35:22.668Z,11.29
2023-04-14T17:37:50.802Z,11.24
2023-04-14T17:40:19.001Z,11.21
2023-04-14T17:42:47.131Z,11.09
2023-04-14T17:45:21.511Z,11.05
2023-04-14T17:47:50.005Z,11.00
2023-04-14T17:50:18.592Z,10.98
2023-04-14T17:52:48.111Z,10.98
2023-04-14T17:55:16.486Z,10.99
2023-04-14T17:57:45.441Z,10.97
2023-04-14T18:00:14.786Z,10.76
2023-04-14T18:02:43.147Z,10.76
2023-04-14T18:05:11.467Z,10.61
2023-04-14T18:07:39.634Z,10.61
2023-04-14T18:10:09.847Z,10.53
2023-04-14T18:12:37.999Z,10.55
2023-04-14T18:15:06.480Z,10.45
2023-04-14T18:17:36.613Z,10.46
2023-04-14T18:20:04.942Z,10.44
2023-04-14T18:22:33.060Z,10.45
2023-04-14T18:25:01.437Z,10.39
2023-04-14T18:30:02.141Z,10.38
2023-04-14T18:32:32.283Z,10.36
2023-04-14T18:35:00.524Z,10.26
2023-04-14T18:37:28.870Z,10.21
2023-04-14T18:39:57.205Z,10.21
2023-04-14T18:42:25.275Z,10.17
2023-04-14T18:44:54.840Z,10.14
2023-04-14T18:47:23.310Z,10.14
2023-04-14T18:49:51.648Z,10.12
2023-04-14T18:52:20.053Z,10.00
2023-04-14T18:54:48.318Z,9.95
2023-04-14T18:57:16.417Z,9.90
2023-04-14T18:59:44.429Z,9.81
2023-04-14T19:02:14.110Z,9.83
2023-04-14T19:04:42.485Z,9.80
2023-04-14T19:07:10.723Z,9.77
2023-04-14T19:09:38.765Z,9.76
2023-04-14T19:12:12.811Z,9.59
2023-04-14T19:14:50.238Z,9.57
2023-04-14T19:17:19.741Z,9.55
2023-04-14T19:19:47.934Z,9.52
2023-04-14T19:22:16.998Z,9.49
2023-04-14T19:24:45.089Z,9.49
2023-04-14T19:27:13.398Z,9.38
2023-04-14T19:29:41.468Z,9.30
2023-04-14T19:32:09.726Z,9.24
2023-04-14T19:34:39.212Z,9.24
2023-04-14T19:37:07.279Z,9.20
2023-04-14T19:39:35.732Z,9.19
2023-04-14T19:42:04.232Z,9.14
2023-04-14T19:44:32.525Z,9.16
2023-04-14T19:47:00.674Z,9.15
2023-04-14T19:49:29.505Z,9.07
2023-04-14T19:51:59.809Z,9.07
2023-04-14T19:54:27.916Z,8.99
2023-04-14T19:56:56.010Z,8.95
2023-04-14T19:59:24.212Z,8.93
2023-04-14T20:01:52.287Z,8.92
2023-04-14T20:04:20.852Z,8.91
2023-04-14T20:06:49.418Z,8.88
2023-04-14T20:09:18.826Z,8.78
2023-04-14T20:11:47.081Z,8.68
2023-04-14T20:14:15.129Z,8.71
2023-04-14T20:16:44.542Z,8.69
2023-04-14T20:19:12.836Z,8.58
2023-04-14T20:21:40.938Z,8.54
2023-04-14T20:24:08.967Z,8.44
2023-04-14T20:26:42.726Z,8.47
2023-04-14T20:29:11.814Z,8.42
2023-04-14T20:31:41.754Z,8.42
2023-04-14T20:34:10.438Z,8.46
2023-04-14T20:36:38.480Z,8.34
2023-04-14T20:39:07.225Z,8.41
2023-04-14T20:41:36.520Z,8.43
2023-04-14T20:44:06.429Z,8.42
2023-04-14T20:46:34.556Z,8.37
2023-04-14T20:49:03.116Z,8.36
2023-04-14T20:51:32.398Z,8.26
2023-04-14T20:54:01.348Z,8.23
2023-04-14T20:56:30.988Z,8.26
2023-04-14T20:58:59.868Z,8.28
2023-04-14T21:01:29.540Z,8.24
2023-04-14T21:03:57.740Z,8.25
2023-04-14T21:06:26.403Z,8.17
2023-04-14T21:08:54.622Z,8.15
2023-04-14T21:11:22.682Z,8.05
2023-04-14T21:15:28.763Z,8.04
2023-04-14T21:16:40.858Z,7.96
2023-04-14T21:19:09.486Z,8.01
2023-04-14T21:21:37.812Z,8.05
2023-04-14T21:24:06.285Z,8.06
2023-04-14T21:26:34.397Z,8.05
2023-04-14T21:29:02.794Z,7.94
2023-04-14T21:31:31.120Z,7.82
2023-04-14T21:34:00.630Z,7.72
2023-04-14T21:36:28.791Z,7.73
2023-04-14T21:38:57.312Z,7.65
2023-04-14T21:41:25.561Z,7.56
2023-04-14T21:43:53.654Z,7.59
2023-04-14T21:46:21.885Z,7.55
2023-04-14T21:48:50.003Z,7.51
2023-04-14T21:51:19.862Z,7.51
2023-04-14T21:53:48.007Z,7.55
2023-04-14T21:56:16.227Z,7.51
2023-04-14T21:58:45.854Z,7.53
2023-04-14T22:01:13.898Z,7.40
2023-04-14T22:03:42.187Z,7.37
2023-04-14T22:06:11.607Z,7.36
2023-04-14T22:08:41.641Z,7.33
2023-04-14T22:11:09.737Z,7.24
2023-04-14T22:13:38.096Z,7.18
2023-04-14T22:16:06.727Z,7.18
2023-04-14T22:18:35.959Z,7.15
2023-04-14T22:21:04.955Z,7.11
2023-04-14T22:23:33.113Z,7.09
2023-04-14T22:26:02.568Z,7.03
2023-04-14T22:28:30.676Z,7.03
2023-04-14T22:30:58.782Z,6.98
2023-04-14T22:33:27.511Z,6.91
2023-04-14T22:35:55.597Z,6.85
2023-04-14T22:38:23.658Z,6.85
2023-04-14T22:40:52.744Z,6.81
2023-04-14T22:43:22.466Z,6.81
2023-04-14T22:45:50.553Z,6.73
2023-04-14T22:48:18.741Z,6.67
2023-04-14T22:50:47.344Z,6.71
2023-04-14T22:53:15.830Z,6.68
2023-04-14T22:55:44.208Z,6.70
2023-04-14T22:58:16.734Z,6.74
2023-04-14T23:00:46.440Z,6.64
2023-04-14T23:03:15.630Z,6.65
2023-04-14T23:05:44.849Z,6.59
2023-04-14T23:08:12.993Z,6.59
2023-04-14T23:10:41.120Z,6.58
2023-04-14T23:13:09.560Z,6.52
2023-04-14T23:15:37.672Z,6.46
2023-04-14T23:18:07.509Z,6.40
2023-04-14T23:20:35.938Z,6.45
2023-04-14T23:23:04.814Z,6.45
2023-04-14T23:25:33.429Z,6.52
2023-04-14T23:28:01.651Z,6.41
2023-04-14T23:30:29.828Z,6.44
2023-04-14T23:32:58.041Z,6.41
2023-04-14T23:35:28.274Z,6.40
2023-04-14T23:37:56.990Z,6.39
2023-04-14T23:40:25.121Z,6.36
2023-04-14T23:42:56.115Z,6.22
2023-04-14T23:45:24.417Z,6.11
2023-04-14T23:47:53.910Z,6.06
2023-04-14T23:50:22.266Z,5.99
2023-04-14T23:52:52.229Z,6.01
2023-04-14T23:55:21.267Z,5.93
